Time;durP1;ratioP1;P1;durP2;ratioP2;P2;SDS_P1;SDS_P2;PMS_P1;PMS_P2;Temp;Humidity;BMP_temperature;BMP_pressure;BME280_temperature;BME280_humidity;BME280_pressure;Samples;Min_cycle;Max_cycle;Signal;HPM_P1;HPM_P2
2021/05/02 00:00:45;;;;;;;47.67;27.33;;;;;;;8.01;77.89;99273.64;232787;1177;116831;-68
2021/05/02 00:05:56;;;;;;;40.53;23.50;;;;;;;7.92;77.79;99265.23;232722;1177;116309;-65
2021/05/02 00:11:00;;;;;;;36.95;22.00;;;;;;;7.95;78.01;99277.23;232310;1177;116317;-68
2021/05/02 00:16:06;;;;;;;35.88;22.80;;;;;;;7.95;78.60;99287.84;232138;1178;116362;-68
2021/05/02 00:21:11;;;;;;;47.65;27.40;;;;;;;8.00;77.80;99261.41;233064;1171;116592;-68
2021/05/02 00:26:15;;;;;;;41.50;26.40;;;;;;;8.02;78.37;99267.30;232320;1177;116609;-66
2021/05/02 00:31:19;;;;;;;44.85;30.20;;;;;;;8.00;78.56;99253.44;232133;1179;116110;-69
2021/05/02 00:36:23;;;;;;;51.45;31.50;;;;;;;7.95;78.80;99237.42;233247;1177;116961;-67
2021/05/02 00:41:33;;;;;;;39.10;27.65;;;;;;;7.95;78.32;99206.35;232101;1177;115533;-67
2021/05/02 00:46:38;;;;;;;48.43;25.27;;;;;;;7.93;78.63;99205.80;231994;1177;116343;-69
2021/05/02 00:51:46;;;;;;;43.25;27.45;;;;;;;7.90;78.55;99198.30;232469;1177;116472;-68
2021/05/02 00:57:08;;;;;;;52.80;29.30;;;;;;;7.92;78.37;99177.65;232462;1179;115478;-68
2021/05/02 01:02:14;;;;;;;38.43;28.03;;;;;;;7.89;78.13;99154.23;233256;1177;115882;-66
2021/05/02 01:07:21;;;;;;;43.53;25.75;;;;;;;7.82;78.82;99156.18;232656;1179;116187;-67
2021/05/02 01:12:27;;;;;;;41.40;26.35;;;;;;;7.83;78.47;99155.14;233229;1178;119062;-65
2021/05/02 01:17:33;;;;;;;39.73;24.13;;;;;;;7.82;79.31;99163.33;233401;1177;116598;-67
2021/05/02 01:22:38;;;;;;;44.43;29.10;;;;;;;7.81;78.86;99149.25;234387;1177;116769;-66
2021/05/02 01:27:42;;;;;;;44.35;27.05;;;;;;;7.85;78.28;99123.07;234096;1179;117842;-67
2021/05/02 01:32:46;;;;;;;42.65;27.78;;;;;;;7.86;79.31;99108.77;234649;1177;116604;-67
2021/05/02 01:37:51;;;;;;;42.93;25.77;;;;;;;7.86;78.24;99104.27;234694;1176;116848;-68
2021/05/02 01:42:55;;;;;;;41.85;26.70;;;;;;;7.86;78.17;99071.62;234645;1179;116120;-66
2021/05/02 01:48:06;;;;;;;46.90;28.55;;;;;;;7.80;78.79;99075.20;234605;1177;116841;-66
2021/05/02 01:53:08;;;;;;;40.70;24.30;;;;;;;7.83;78.46;99070.23;233956;1178;116328;-69
2021/05/02 01:58:12;;;;;;;35.63;24.60;;;;;;;7.81;78.76;99052.93;234129;1177;117110;-66
2021/05/02 02:03:15;;;;;;;50.48;30.30;;;;;;;7.74;79.05;99029.98;232594;1177;116384;-68
2021/05/02 02:08:19;;;;;;;35.85;23.35;;;;;;;7.72;78.59;99025.95;232670;1177;115321;-68
2021/05/02 02:13:22;;;;;;;42.40;26.95;;;;;;;7.64;79.04;99019.14;232904;1174;115572;-67
2021/05/02 02:18:26;;;;;;;43.53;25.20;;;;;;;7.64;79.04;99021.80;232097;1177;115498;-66
2021/05/02 02:23:34;;;;;;;40.63;23.73;;;;;;;7.54;79.02;98996.92;232162;1177;116004;-68
2021/05/02 02:28:38;;;;;;;36.60;25.80;;;;;;;7.45;79.17;98975.25;232402;1178;116500;-69
2021/05/02 02:33:42;;;;;;;36.60;20.90;;;;;;;7.38;79.14;98956.00;232128;1177;116233;-66
2021/05/02 02:38:46;;;;;;;41.07;26.53;;;;;;;7.27;79.11;98962.14;232500;1173;115229;-66
2021/05/02 02:43:57;;;;;;;38.10;23.40;;;;;;;7.28;79.77;98969.86;232087;1177;140091;-66
2021/05/02 02:49:09;;;;;;;31.90;23.30;;;;;;;7.31;79.30;98971.25;232728;1174;115646;-65
2021/05/02 02:54:17;;;;;;;24.10;15.75;;;;;;;7.27;79.88;98970.91;232637;1177;115838;-67
2021/05/02 02:59:25;;;;;;;32.67;23.20;;;;;;;7.28;78.97;98969.05;232419;1179;116621;-66
2021/05/02 03:04:31;;;;;;;38.33;24.70;;;;;;;7.30;79.16;98964.33;232643;1178;115966;-67
2021/05/02 03:09:41;;;;;;;41.43;26.70;;;;;;;7.29;79.80;98957.41;233224;1177;117884;-67
2021/05/02 03:14:44;;;;;;;24.30;16.90;;;;;;;7.32;79.29;98938.39;233157;1177;116072;-67
2021/05/02 03:19:52;;;;;;;39.10;27.40;;;;;;;7.31;79.58;98937.59;233073;1179;117191;-68
2021/05/02 03:24:59;;;;;;;36.05;24.25;;;;;;;7.34;79.41;98923.03;233109;1177;117386;-68
2021/05/02 03:30:07;;;;;;;34.17;24.73;;;;;;;7.38;79.10;98900.32;232114;1179;117263;-69
2021/05/02 03:35:11;;;;;;;44.70;28.60;;;;;;;7.36;79.66;98891.80;232331;1178;116671;-68
2021/05/02 03:40:15;;;;;;;24.35;15.50;;;;;;;7.38;79.45;98881.77;233901;1177;116913;-68
2021/05/02 03:45:18;;;;;;;41.97;27.70;;;;;;;7.37;79.54;98878.30;234436;1177;115660;-70
2021/05/02 03:50:21;;;;;;;36.53;22.93;;;;;;;7.42;79.37;98853.74;234483;1177;114917;-70
2021/05/02 03:55:25;;;;;;;38.57;24.17;;;;;;;7.47;79.86;98853.04;234344;1177;115037;-70
2021/05/02 04:00:28;;;;;;;31.45;23.35;;;;;;;7.52;80.03;98863.75;232889;1177;117594;-69
2021/05/02 04:05:32;;;;;;;33.70;23.95;;;;;;;7.57;79.24;98856.70;232582;1177;117361;-69
2021/05/02 04:10:36;;;;;;;38.30;25.37;;;;;;;7.55;79.61;98834.91;233518;1177;116377;-69
2021/05/02 04:15:39;;;;;;;36.93;25.73;;;;;;;7.56;79.37;98828.57;233380;1178;117125;-69
2021/05/02 04:20:42;;;;;;;32.20;22.45;;;;;;;7.55;79.49;98821.66;232870;1177;116187;-70
2021/05/02 04:25:45;;;;;;;36.60;25.20;;;;;;;7.56;79.98;98815.31;232397;1177;116555;-69
2021/05/02 04:30:48;;;;;;;35.60;24.93;;;;;;;7.59;79.52;98820.14;233172;1178;115883;-68
2021/05/02 04:35:50;;;;;;;39.60;23.40;;;;;;;7.58;79.81;98796.51;232655;1177;115612;-69
2021/05/02 04:40:53;;;;;;;34.95;24.50;;;;;;;7.60;80.12;98789.92;232203;1177;121610;-67
2021/05/02 04:45:56;;;;;;;28.37;21.33;;;;;;;7.63;80.15;98780.69;232223;1177;117152;-68
2021/05/02 04:50:59;;;;;;;34.30;26.30;;;;;;;7.59;79.56;98769.75;232931;1170;114844;-68
2021/05/02 04:56:04;;;;;;;33.33;23.63;;;;;;;7.62;79.36;98752.56;231961;1177;116331;-68
2021/05/02 05:01:07;;;;;;;26.53;18.73;;;;;;;7.60;79.18;98746.69;232293;1177;116834;-68
2021/05/02 05:06:10;;;;;;;36.80;25.23;;;;;;;7.58;79.68;98738.97;233123;1177;116561;-68
2021/05/02 05:11:13;;;;;;;32.57;23.90;;;;;;;7.61;80.24;98727.88;232068;1177;116084;-72
2021/05/02 05:16:16;;;;;;;29.43;21.20;;;;;;;7.60;80.17;98714.86;232166;1179;116263;-72
2021/05/02 05:21:21;;;;;;;35.85;21.80;;;;;;;7.58;79.78;98709.80;232504;1177;117271;-74
2021/05/02 05:26:24;;;;;;;22.30;15.90;;;;;;;7.58;79.68;98691.23;232291;1177;116668;-73
2021/05/02 05:31:28;;;;;;;30.35;19.20;;;;;;;7.55;79.74;98674.98;231955;1179;116250;-72
2021/05/02 05:36:31;;;;;;;29.20;20.40;;;;;;;7.57;80.06;98684.31;232168;1178;116015;-72
2021/05/02 05:41:35;;;;;;;29.95;19.45;;;;;;;7.57;79.71;98665.75;232096;1177;116257;-71
2021/05/02 05:46:39;;;;;;;30.80;21.73;;;;;;;7.57;80.44;98659.64;233836;1177;116125;-72
2021/05/02 05:51:43;;;;;;;37.20;25.10;;;;;;;7.58;80.14;98647.99;233185;1177;116287;-73
2021/05/02 05:56:45;;;;;;;34.30;24.10;;;;;;;7.57;80.36;98633.13;233744;1177;116666;-72
2021/05/02 06:01:49;;;;;;;29.33;20.60;;;;;;;7.60;80.17;98620.19;234311;1177;115815;-72
2021/05/02 06:06:52;;;;;;;20.60;15.85;;;;;;;7.59;80.17;98615.92;234137;1178;116447;-69
2021/05/02 06:11:55;;;;;;;25.65;19.88;;;;;;;7.61;80.00;98600.58;232239;1177;116731;-69
2021/05/02 06:16:58;;;;;;;22.30;18.60;;;;;;;7.66;80.47;98579.41;232823;1173;117232;-68
2021/05/02 06:22:01;;;;;;;27.13;19.18;;;;;;;7.65;80.94;98579.66;232206;1179;116768;-68
2021/05/02 06:27:06;;;;;;;23.35;18.25;;;;;;;7.64;80.67;98576.20;232646;1177;116640;-66
2021/05/02 06:32:10;;;;;;;24.20;16.50;;;;;;;7.63;80.37;98565.86;232102;1177;117686;-68
2021/05/02 06:37:13;;;;;;;17.25;11.45;;;;;;;7.58;81.16;98534.77;232757;1177;116787;-69
2021/05/02 06:42:16;;;;;;;18.58;14.43;;;;;;;7.56;80.68;98546.66;232146;1177;115919;-68
2021/05/02 06:47:20;;;;;;;21.70;18.17;;;;;;;7.59;81.31;98593.91;232078;1178;116449;-70
2021/05/02 06:52:23;;;;;;;13.17;10.20;;;;;;;7.64;81.64;98589.45;232204;1179;116545;-71
2021/05/02 06:57:26;;;;;;;14.60;11.63;;;;;;;7.66;81.30;98550.23;232140;1177;117713;-71
2021/05/02 07:02:29;;;;;;;24.95;18.15;;;;;;;7.57;81.30;98514.59;232430;1177;116295;-71
2021/05/02 07:07:32;;;;;;;18.00;13.00;;;;;;;7.55;81.85;98487.52;232953;1177;115761;-69
2021/05/02 07:12:35;;;;;;;16.17;13.27;;;;;;;7.53;81.14;98516.13;232851;1177;115849;-69
2021/05/02 07:17:38;;;;;;;19.77;16.07;;;;;;;7.55;81.55;98574.22;233161;1177;115446;-67
2021/05/02 07:22:50;;;;;;;13.65;12.20;;;;;;;7.63;81.45;98569.31;233395;1177;115685;-67
2021/05/02 07:27:55;;;;;;;11.73;8.05;;;;;;;7.70;81.48;98482.39;232181;1177;115009;-67
2021/05/02 07:32:58;;;;;;;10.70;9.60;;;;;;;7.65;81.59;98447.84;232615;1177;116096;-68
2021/05/02 07:38:03;;;;;;;8.45;7.55;;;;;;;7.65;81.66;98442.53;233787;1177;115210;-68
2021/05/02 07:43:07;;;;;;;6.37;5.77;;;;;;;7.63;81.73;98423.45;233682;1177;114717;-68
2021/05/02 07:48:11;;;;;;;7.87;6.77;;;;;;;7.68;81.66;98422.67;232980;1177;115719;-67
2021/05/02 07:53:18;;;;;;;10.03;8.03;;;;;;;7.71;81.69;98425.64;234618;1177;115781;-68
2021/05/02 07:58:21;;;;;;;10.40;9.30;;;;;;;7.77;81.63;98414.05;233698;1177;115390;-68
2021/05/02 08:03:24;;;;;;;9.00;8.05;;;;;;;7.77;81.33;98403.44;233802;1177;115014;-67
2021/05/02 08:08:28;;;;;;;6.40;5.90;;;;;;;7.80;81.86;98388.07;234553;1177;115611;-68
2021/05/02 08:13:31;;;;;;;11.78;8.48;;;;;;;7.85;81.99;98367.70;233725;1177;116218;-68
2021/05/02 08:18:34;;;;;;;9.08;7.33;;;;;;;7.88;81.59;98353.94;232979;1177;116885;-68
2021/05/02 08:23:38;;;;;;;9.15;7.80;;;;;;;7.90;81.73;98338.58;232122;1180;116401;-67
2021/05/02 08:28:41;;;;;;;17.17;10.03;;;;;;;7.91;81.71;98328.77;232602;1170;114746;-68
2021/05/02 08:33:45;;;;;;;8.45;7.55;;;;;;;7.93;81.78;98313.39;232631;1177;116196;-69
2021/05/02 08:38:52;;;;;;;9.70;7.47;;;;;;;7.96;82.16;98296.94;233439;1177;115763;-68
2021/05/02 08:43:57;;;;;;;7.35;6.20;;;;;;;8.00;81.97;98290.88;232210;1177;114989;-68
2021/05/02 08:49:04;;;;;;;9.75;8.75;;;;;;;8.06;81.71;98286.42;232089;1177;115498;-67
2021/05/02 08:54:07;;;;;;;11.10;8.58;;;;;;;8.08;81.77;98277.16;232208;1179;116633;-70
2021/05/02 08:59:12;;;;;;;10.23;8.23;;;;;;;8.11;81.87;98246.66;232462;1177;117067;-67
2021/05/02 09:04:20;;;;;;;15.00;11.10;;;;;;;8.15;81.98;98237.13;232391;1177;117586;-64
2021/05/02 09:09:43;;;;;;;7.88;7.15;;;;;;;8.18;82.52;98226.02;232372;1177;116270;-68
2021/05/02 09:14:46;;;;;;;10.93;9.07;;;;;;;8.22;81.77;98213.03;232656;1178;116599;-65
2021/05/02 09:19:52;;;;;;;14.57;11.40;;;;;;;8.23;82.23;98219.94;232070;1172;117179;-66
2021/05/02 09:25:06;;;;;;;17.10;11.88;;;;;;;8.24;81.93;98201.10;232499;1177;115704;-66
2021/05/02 09:30:14;;;;;;;8.98;8.05;;;;;;;8.26;81.70;98188.34;232759;1177;115808;-65
2021/05/02 09:35:33;;;;;;;8.20;6.10;;;;;;;8.24;81.79;98165.80;233391;1178;114808;-67
2021/05/02 09:40:51;;;;;;;11.15;9.70;;;;;;;8.25;82.36;98159.43;232783;1177;117279;-66
2021/05/02 09:51:31;;;;;;;10.35;9.20;;;;;;;8.20;82.00;98138.97;234295;1177;114727;-69
2021/05/02 09:56:44;;;;;;;9.90;8.10;;;;;;;8.20;81.84;98125.69;234409;1177;115517;-66
2021/05/02 10:02:11;;;;;;;12.25;10.60;;;;;;;8.23;82.33;98105.80;234404;1177;116649;-66
2021/05/02 10:07:28;;;;;;;7.00;6.10;;;;;;;8.26;82.57;98107.91;234533;1177;114953;-64
2021/05/02 10:12:33;;;;;;;13.03;7.83;;;;;;;8.26;81.98;98116.67;234622;1171;115407;-64
2021/05/02 10:17:38;;;;;;;7.60;6.77;;;;;;;8.29;82.55;98132.08;233375;1177;116111;-64
2021/05/02 10:22:41;;;;;;;9.90;7.85;;;;;;;8.33;82.80;98135.85;233201;1177;116107;-66
2021/05/02 10:27:50;;;;;;;7.53;6.25;;;;;;;8.38;82.71;98127.11;232844;1177;116577;-66
2021/05/02 10:33:02;;;;;;;21.00;13.20;;;;;;;8.44;82.75;98116.27;233178;1177;114966;-65
2021/05/02 10:38:05;;;;;;;5.50;5.00;;;;;;;8.49;82.66;98123.45;232040;1177;117531;-65
2021/05/02 10:43:25;;;;;;;15.75;12.05;;;;;;;8.50;82.84;98126.91;233489;1177;114730;-67
2021/05/02 10:48:28;;;;;;;13.57;7.73;;;;;;;8.60;82.21;98126.92;232053;1177;115556;-66
2021/05/02 10:53:32;;;;;;;11.00;7.90;;;;;;;8.67;83.08;98112.34;231979;1177;115712;-68
2021/05/02 10:58:40;;;;;;;13.58;11.25;;;;;;;8.72;82.42;98100.94;232362;1177;116968;-65
2021/05/02 11:03:46;;;;;;;11.30;10.20;;;;;;;8.78;81.84;98095.38;232010;1177;116222;-66
2021/05/02 11:09:00;;;;;;;11.50;8.90;;;;;;;8.87;82.16;98085.01;232192;1177;115832;-67
2021/05/02 11:14:13;;;;;;;7.50;6.45;;;;;;;8.92;82.74;98078.91;233127;1177;208838;-64
2021/05/02 11:19:33;;;;;;;9.30;8.35;;;;;;;8.95;82.51;98073.87;232724;1177;115524;-65
2021/05/02 11:24:43;;;;;;;7.28;6.35;;;;;;;9.04;82.57;98064.31;233451;1177;115499;-66
2021/05/02 11:30:01;;;;;;;8.30;7.50;;;;;;;9.09;82.50;98052.89;233457;1177;115055;-68
2021/05/02 11:35:14;;;;;;;7.45;6.65;;;;;;;9.21;82.59;98050.74;232122;1177;115731;-67
2021/05/02 11:40:32;;;;;;;6.25;5.75;;;;;;;9.32;82.47;98067.50;233881;1177;115906;-67
2021/05/02 11:45:43;;;;;;;5.77;5.23;;;;;;;9.33;81.92;98058.45;234193;1179;115142;-65
2021/05/02 11:50:47;;;;;;;6.60;5.40;;;;;;;9.32;82.24;98059.52;233520;1177;115125;-66
2021/05/02 11:55:53;;;;;;;5.80;5.20;;;;;;;9.29;81.71;98046.76;234444;1177;115201;-65
2021/05/02 12:01:05;;;;;;;7.10;6.40;;;;;;;9.32;82.86;98051.55;234408;1177;115628;-66
2021/05/02 12:06:09;;;;;;;6.88;5.98;;;;;;;9.46;81.60;98071.23;234531;1177;115254;-65
2021/05/02 12:11:12;;;;;;;5.03;4.53;;;;;;;9.50;81.74;98079.44;233913;1177;116969;-66
2021/05/02 12:16:21;;;;;;;5.23;4.73;;;;;;;9.55;81.91;98050.97;233593;1177;115079;-67
2021/05/02 12:21:27;;;;;;;5.60;5.00;;;;;;;9.66;82.15;98060.55;232781;1177;115578;-67
2021/05/02 12:26:33;;;;;;;5.37;4.87;;;;;;;9.72;81.78;98056.81;232826;1177;115874;-66
2021/05/02 12:31:36;;;;;;;7.30;6.15;;;;;;;9.82;81.94;98060.48;233915;1177;116023;-68
2021/05/02 12:36:40;;;;;;;6.30;5.60;;;;;;;9.91;81.76;98072.19;233505;1177;115302;-68
2021/05/02 12:41:43;;;;;;;5.60;5.07;;;;;;;9.97;81.57;98073.77;233179;1177;115825;-67
2021/05/02 12:46:49;;;;;;;3.90;3.60;;;;;;;9.98;81.30;98064.72;232219;1177;116678;-66
2021/05/02 12:52:14;;;;;;;8.63;5.27;;;;;;;9.92;80.60;98081.77;232146;1177;116079;-67
2021/05/02 12:57:25;;;;;;;5.27;4.50;;;;;;;9.84;80.39;98085.77;232999;1177;115044;-67
2021/05/02 13:02:33;;;;;;;6.33;5.20;;;;;;;9.70;80.50;98116.67;232354;1177;115714;-67
2021/05/02 13:07:44;;;;;;;5.40;4.70;;;;;;;9.59;80.67;98120.41;232824;1177;115192;-65
2021/05/02 13:13:04;;;;;;;16.85;8.20;;;;;;;9.46;80.87;98140.38;232903;1177;115375;-67
2021/05/02 13:18:10;;;;;;;3.80;3.50;;;;;;;9.35;80.06;98146.74;232232;1177;115886;-66
2021/05/02 13:23:31;;;;;;;6.13;5.53;;;;;;;9.22;80.70;98174.64;232531;1177;115337;-65
2021/05/02 13:28:34;;;;;;;5.70;4.55;;;;;;;9.08;80.63;98200.14;232666;1177;115208;-64
2021/05/02 13:33:38;;;;;;;5.35;4.20;;;;;;;8.92;79.74;98211.77;233506;1177;114810;-67
2021/05/02 13:38:42;;;;;;;3.88;3.30;;;;;;;8.75;80.27;98223.42;233460;1177;114537;-66
2021/05/02 13:43:44;;;;;;;2.40;2.20;;;;;;;8.58;80.34;98235.27;233205;1177;114856;-68
2021/05/02 13:48:47;;;;;;;4.38;4.08;;;;;;;8.46;80.46;98263.91;233418;1177;115303;-68
2021/05/02 13:53:51;;;;;;;4.55;3.15;;;;;;;8.35;80.15;98277.11;233974;1177;115234;-64
2021/05/02 13:58:55;;;;;;;1.97;1.80;;;;;;;8.30;80.63;98285.00;234541;1177;115561;-67
2021/05/02 14:04:00;;;;;;;5.58;2.95;;;;;;;8.33;80.42;98303.11;234421;1177;115259;-68
2021/05/02 14:09:03;;;;;;;3.10;2.70;;;;;;;8.28;80.46;98324.28;234232;1172;139190;-66
2021/05/02 14:14:06;;;;;;;2.20;1.63;;;;;;;8.23;80.02;98334.88;232241;1178;116564;-66
2021/05/02 14:19:09;;;;;;;2.80;2.45;;;;;;;8.09;80.37;98363.69;232629;1177;116871;-66
2021/05/02 14:24:12;;;;;;;2.10;1.90;;;;;;;7.90;80.19;98388.98;232427;1177;117485;-65
2021/05/02 14:29:14;;;;;;;2.85;2.30;;;;;;;7.81;79.91;98398.44;233809;1177;117174;-66
2021/05/02 14:34:32;;;;;;;2.23;2.03;;;;;;;7.70;80.81;98410.77;233067;1177;115803;-65
2021/05/02 14:39:36;;;;;;;2.07;1.97;;;;;;;7.63;79.90;98447.31;232757;1178;115330;-68
2021/05/02 14:44:39;;;;;;;1.40;1.30;;;;;;;7.56;80.31;98462.60;233403;1177;115100;-67
2021/05/02 14:49:42;;;;;;;1.80;1.70;;;;;;;7.36;79.89;98467.62;231968;1179;115932;-67
2021/05/02 14:54:45;;;;;;;2.40;2.23;;;;;;;7.27;80.30;98493.77;232716;1178;116165;-68
2021/05/02 14:59:49;;;;;;;9.30;3.10;;;;;;;7.24;80.00;98504.84;234001;1177;115844;-67
2021/05/02 15:04:52;;;;;;;1.30;1.13;;;;;;;7.09;79.86;98533.75;232299;1177;115283;-66
2021/05/02 15:09:55;;;;;;;2.70;1.33;;;;;;;6.98;80.47;98547.91;232145;1177;115503;-65
2021/05/02 15:14:58;;;;;;;2.93;2.63;;;;;;;6.93;80.14;98561.06;232860;1174;115926;-64
2021/05/02 15:20:06;;;;;;;2.67;2.47;;;;;;;6.83;79.83;98572.28;232963;1177;135560;-68
2021/05/02 15:25:11;;;;;;;3.07;1.63;;;;;;;6.71;79.55;98592.73;232788;1177;114611;-67
2021/05/02 15:30:15;;;;;;;2.80;1.80;;;;;;;6.57;79.59;98599.34;233190;1177;115693;-65
2021/05/02 15:35:18;;;;;;;3.15;1.90;;;;;;;6.53;79.63;98633.43;233020;1177;118261;-65
2021/05/02 15:40:21;;;;;;;1.63;1.53;;;;;;;6.48;79.33;98654.50;233655;1177;115008;-68
2021/05/02 15:45:24;;;;;;;1.43;1.00;;;;;;;6.40;79.99;98679.52;233559;1177;115089;-66
2021/05/02 15:50:29;;;;;;;2.43;2.23;;;;;;;6.33;79.62;98692.06;233523;1177;115210;-65
2021/05/02 15:55:36;;;;;;;2.25;2.05;;;;;;;6.27;79.11;98700.13;233843;1173;115523;-65
2021/05/02 16:00:39;;;;;;;3.50;2.25;;;;;;;6.11;79.39;98701.65;234006;1177;115457;-66
2021/05/02 16:05:42;;;;;;;1.80;1.70;;;;;;;6.03;79.39;98707.28;234524;1177;115285;-68
2021/05/02 16:10:46;;;;;;;3.78;3.48;;;;;;;6.02;80.18;98734.77;234429;1170;115577;-65
2021/05/02 16:15:50;;;;;;;8.20;6.85;;;;;;;6.02;79.56;98737.41;234388;1177;115465;-66
2021/05/02 16:20:53;;;;;;;5.23;4.20;;;;;;;5.91;79.51;98756.71;234433;1177;115128;-65
2021/05/02 16:25:56;;;;;;;2.43;2.23;;;;;;;5.82;78.96;98771.27;234422;1177;115477;-66
2021/05/02 16:31:00;;;;;;;2.30;2.10;;;;;;;5.80;79.45;98766.23;232921;1177;115651;-65
2021/05/02 16:36:03;;;;;;;3.10;2.60;;;;;;;5.68;79.44;98781.25;232640;1177;114896;-67
2021/05/02 16:41:06;;;;;;;2.28;2.08;;;;;;;5.61;79.30;98793.75;233331;1177;116136;-66
2021/05/02 16:46:10;;;;;;;2.83;2.00;;;;;;;5.52;79.47;98793.26;232190;1179;116132;-66
2021/05/02 16:51:14;;;;;;;2.30;2.10;;;;;;;5.46;79.96;98814.52;232296;1177;115698;-66
2021/05/02 16:56:17;;;;;;;2.20;2.00;;;;;;;5.46;79.54;98825.90;232903;1177;117039;-70
2021/05/02 17:01:23;;;;;;;1.80;1.00;;;;;;;5.31;79.75;98831.56;232273;1177;116011;-66
2021/05/02 17:06:25;;;;;;;1.00;0.97;;;;;;;5.15;79.30;98855.16;233530;1177;115647;-68
2021/05/02 17:11:29;;;;;;;2.78;1.83;;;;;;;4.93;79.64;98883.81;233024;1177;115840;-68
2021/05/02 17:16:32;;;;;;;1.93;1.65;;;;;;;4.69;79.46;98881.00;232518;1177;115454;-67
2021/05/02 17:21:36;;;;;;;2.45;2.25;;;;;;;4.57;79.51;98905.70;232071;1177;114732;-65
2021/05/02 17:26:38;;;;;;;1.80;1.70;;;;;;;4.52;80.12;98913.45;232032;1179;116642;-68
2021/05/02 17:31:41;;;;;;;0.90;0.80;;;;;;;4.49;79.29;98922.61;232420;1177;115933;-67
2021/05/02 17:36:44;;;;;;;1.80;1.70;;;;;;;4.35;79.52;98932.45;233544;1178;116970;-67
2021/05/02 17:41:48;;;;;;;2.73;2.10;;;;;;;4.25;79.69;98958.51;232331;1177;117914;-67
2021/05/02 17:46:52;;;;;;;1.47;1.33;;;;;;;4.19;79.88;98967.27;232269;1170;115121;-66
2021/05/02 17:51:55;;;;;;;2.00;1.27;;;;;;;4.10;79.42;98986.98;234106;1177;116140;-66
2021/05/02 17:56:59;;;;;;;2.80;1.45;;;;;;;4.05;79.69;99003.44;233159;1177;115298;-64
2021/05/02 18:02:01;;;;;;;1.50;1.37;;;;;;;4.05;79.99;99015.81;234137;1177;115050;-65
2021/05/02 18:07:05;;;;;;;2.30;1.57;;;;;;;3.99;80.10;99041.19;233985;1178;114914;-66
2021/05/02 18:12:11;;;;;;;2.55;1.20;;;;;;;3.95;79.05;99061.11;234239;1177;114938;-66
2021/05/02 18:17:16;;;;;;;3.43;2.57;;;;;;;3.91;79.59;99069.64;234387;1177;115121;-70
2021/05/02 18:22:20;;;;;;;2.27;2.07;;;;;;;3.90;79.71;99091.75;234207;1177;115399;-69
2021/05/02 18:27:25;;;;;;;2.40;2.00;;;;;;;3.90;79.86;99102.30;234123;1177;115190;-67
2021/05/02 18:32:28;;;;;;;2.30;1.88;;;;;;;3.88;79.76;99110.41;232720;1177;118587;-67
2021/05/02 18:37:32;;;;;;;3.40;2.80;;;;;;;3.83;80.20;99122.59;232530;1177;115431;-68
2021/05/02 18:42:35;;;;;;;3.80;2.67;;;;;;;3.85;80.23;99139.83;232777;1170;115376;-67
2021/05/02 18:47:39;;;;;;;4.38;2.23;;;;;;;3.85;80.50;99144.28;231893;1177;115739;-67
2021/05/02 18:52:42;;;;;;;4.50;3.05;;;;;;;3.81;80.21;99149.16;232380;1177;115649;-67
2021/05/02 18:57:46;;;;;;;2.10;2.00;;;;;;;3.82;79.83;99160.52;232850;1177;116539;-67
2021/05/02 19:02:50;;;;;;;3.70;2.10;;;;;;;3.77;81.16;99169.03;232584;1179;116292;-66
2021/05/02 19:07:53;;;;;;;4.50;3.57;;;;;;;3.78;80.74;99173.29;232027;1177;116756;-66
2021/05/02 19:12:57;;;;;;;4.50;3.17;;;;;;;3.79;81.12;99171.47;231880;1177;115885;-68
2021/05/02 19:17:59;;;;;;;3.30;2.40;;;;;;;3.80;80.31;99176.53;232213;1177;115704;-65
2021/05/02 19:23:02;;;;;;;3.35;2.10;;;;;;;3.81;80.28;99180.80;232174;1177;116916;-67
2021/05/02 19:28:07;;;;;;;3.90;2.80;;;;;;;3.77;81.00;99197.22;232835;1177;115864;-66
2021/05/02 19:33:11;;;;;;;6.23;2.60;;;;;;;3.79;81.08;99208.38;232747;1177;115540;-67
2021/05/02 19:38:18;;;;;;;3.93;2.83;;;;;;;3.79;80.73;99213.64;231956;1177;117319;-66
2021/05/02 19:43:21;;;;;;;1.90;1.33;;;;;;;3.74;81.15;99216.89;231812;1177;115444;-65
2021/05/02 19:48:29;;;;;;;3.20;2.90;;;;;;;3.79;81.28;99221.55;232119;1177;114847;-66
2021/05/02 19:53:33;;;;;;;3.70;3.23;;;;;;;3.82;80.92;99219.33;232699;1177;115510;-67
2021/05/02 19:58:37;;;;;;;3.43;2.98;;;;;;;3.86;80.77;99231.09;232546;1177;115189;-69
2021/05/02 20:03:40;;;;;;;3.13;2.87;;;;;;;3.86;80.79;99235.55;232425;1177;114859;-69
2021/05/02 20:08:43;;;;;;;3.60;3.20;;;;;;;3.91;80.62;99238.39;234521;1173;115201;-67
2021/05/02 20:13:46;;;;;;;3.27;2.97;;;;;;;3.92;80.76;99247.93;233700;1177;115387;-68
2021/05/02 20:18:52;;;;;;;;;;;;;;;3.92;80.86;99258.48;234504;1177;115750;-67
2021/05/02 20:23:55;;;;;;;4.07;2.83;;;;;;;3.97;81.62;99262.13;235004;1177;102167;-68
2021/05/02 20:28:59;;;;;;;3.60;3.23;;;;;;;4.06;81.52;99273.27;234270;1177;115816;-64
2021/05/02 20:34:08;;;;;;;5.20;3.10;;;;;;;4.11;80.88;99277.93;234497;1177;115225;-69
2021/05/02 20:39:13;;;;;;;5.80;4.30;;;;;;;4.15;81.24;99284.42;233980;1177;115187;-67
2021/05/02 20:44:16;;;;;;;4.58;4.18;;;;;;;4.19;81.28;99294.38;233269;1177;115550;-67
2021/05/02 20:49:18;;;;;;;4.38;3.23;;;;;;;4.23;81.64;99302.69;233386;1179;116000;-68
2021/05/02 20:54:21;;;;;;;4.57;3.67;;;;;;;4.23;81.28;99306.14;232351;1177;115057;-68
2021/05/02 20:59:24;;;;;;;5.98;4.30;;;;;;;4.23;80.98;99305.33;232062;1177;114668;-66
2021/05/02 21:04:28;;;;;;;8.50;4.05;;;;;;;4.15;80.83;99306.34;233117;1177;115161;-68
2021/05/02 21:09:30;;;;;;;2.00;1.90;;;;;;;4.11;80.55;99317.50;232956;1179;137776;-68
2021/05/02 21:14:34;;;;;;;5.85;5.25;;;;;;;4.11;81.50;99323.58;232596;1177;115196;-68
2021/05/02 21:19:37;;;;;;;4.90;4.40;;;;;;;4.10;81.12;99319.32;232613;1177;115084;-67
2021/05/02 21:24:40;;;;;;;2.40;2.20;;;;;;;4.12;81.73;99322.57;233079;1177;114845;-67
2021/05/02 21:29:44;;;;;;;9.08;5.90;;;;;;;4.14;81.25;99328.45;232729;1177;115503;-68
2021/05/02 21:34:50;;;;;;;15.30;7.57;;;;;;;4.14;81.66;99339.01;232019;1171;115506;-68
2021/05/02 21:39:54;;;;;;;3.63;3.37;;;;;;;4.12;81.61;99348.14;231945;1177;116290;-68
2021/05/02 21:44:57;;;;;;;6.10;4.85;;;;;;;4.11;81.33;99354.42;232020;1177;116491;-67
2021/05/02 21:50:02;;;;;;;7.73;5.98;;;;;;;4.15;81.52;99356.46;232081;1177;115266;-67
2021/05/02 21:55:06;;;;;;;4.00;3.60;;;;;;;4.17;82.01;99362.34;232512;1177;114940;-67
2021/05/02 22:00:14;;;;;;;4.90;4.30;;;;;;;4.16;81.06;99366.00;232117;1177;115148;-67
2021/05/02 22:05:18;;;;;;;7.90;4.43;;;;;;;4.21;80.91;99370.67;231993;1177;116841;-67
2021/05/02 22:10:22;;;;;;;3.40;2.93;;;;;;;4.16;80.89;99371.28;233203;1177;114887;-67
2021/05/02 22:15:26;;;;;;;4.17;3.77;;;;;;;4.13;81.79;99378.78;231857;1177;117599;-66
2021/05/02 22:20:29;;;;;;;5.90;4.60;;;;;;;4.18;80.95;99394.81;233610;1177;115184;-66
2021/05/02 22:25:32;;;;;;;8.60;4.40;;;;;;;4.23;81.09;99402.95;234506;1177;115980;-66
2021/05/02 22:30:36;;;;;;;10.83;5.97;;;;;;;4.19;81.54;99404.36;234602;1177;114790;-68
2021/05/02 22:35:40;;;;;;;6.50;5.90;;;;;;;4.29;81.51;99410.03;232643;1177;115319;-67
2021/05/02 22:40:45;;;;;;;7.90;3.55;;;;;;;4.30;80.96;99412.47;233169;1177;115136;-67
2021/05/02 22:45:50;;;;;;;5.27;4.23;;;;;;;4.31;81.26;99429.92;233256;1177;115134;-68
2021/05/02 22:50:55;;;;;;;5.93;5.40;;;;;;;4.35;80.39;99414.50;232988;1178;114867;-66
2021/05/02 22:55:59;;;;;;;7.05;4.70;;;;;;;4.35;81.20;99427.70;232273;1177;118470;-66
2021/05/02 23:01:07;;;;;;;6.45;4.95;;;;;;;4.32;80.98;99425.45;232789;1177;115330;-67
2021/05/02 23:06:11;;;;;;;7.60;4.60;;;;;;;4.29;81.42;99431.95;233171;1177;114567;-64
2021/05/02 23:11:16;;;;;;;6.13;4.77;;;;;;;4.35;81.45;99428.51;232450;1177;115557;-64
2021/05/02 23:16:19;;;;;;;6.40;4.05;;;;;;;4.37;81.39;99421.20;232628;1177;115346;-68
2021/05/02 23:21:21;;;;;;;4.80;4.30;;;;;;;4.33;81.76;99430.53;232862;1177;115570;-67
2021/05/02 23:26:27;;;;;;;6.77;4.43;;;;;;;4.34;80.77;99432.16;232242;1177;114877;-66
2021/05/02 23:31:29;;;;;;;4.23;3.90;;;;;;;4.36;81.52;99426.69;232119;1174;115166;-66